Time;durP1;ratioP1;P1;durP2;ratioP2;P2;SDS_P1;SDS_P2;PMS_P1;PMS_P2;Temp;Humidity;BMP_temperature;BMP_pressure;BME280_temperature;BME280_humidity;BME280_pressure;Samples;Min_cycle;Max_cycle;Signal;HPM_P1;HPM_P2
2023/07/18 00:00:51;;;;;;;13.38;6.03;;;;;;;19.70;100.00;100380.40;1473303;88;21411;-82
2023/07/18 00:03:17;;;;;;;8.30;5.85;;;;;;;19.66;100.00;100383.20;1473553;88;21699;-81
2023/07/18 00:05:44;;;;;;;10.20;5.85;;;;;;;19.63;100.00;100387.62;1475197;88;21360;-80
2023/07/18 00:08:10;;;;;;;13.85;6.08;;;;;;;19.62;100.00;100391.31;1467867;87;21732;-83
2023/07/18 00:10:36;;;;;;;6.17;5.10;;;;;;;19.64;100.00;100393.81;1472543;87;21530;-79
2023/07/18 00:13:04;;;;;;;7.28;5.35;;;;;;;19.67;100.00;100392.90;1469444;87;21655;-80
2023/07/18 00:15:30;;;;;;;16.77;6.45;;;;;;;19.69;100.00;100398.08;1478936;87;21420;-83
2023/07/18 00:17:56;;;;;;;6.60;5.35;;;;;;;19.67;100.00;100394.77;1465117;87;22292;-81
2023/07/18 00:20:23;;;;;;;9.83;5.97;;;;;;;19.60;100.00;100404.14;1466763;87;21456;-82
2023/07/18 00:22:50;;;;;;;13.80;6.87;;;;;;;19.59;100.00;100407.84;1480644;87;21857;-83
2023/07/18 00:25:19;;;;;;;10.53;5.70;;;;;;;19.61;100.00;100414.66;1475683;87;21470;-82
2023/07/18 00:27:51;;;;;;;9.63;6.10;;;;;;;19.59;100.00;100403.81;1474896;88;22566;-83
2023/07/18 00:30:18;;;;;;;8.98;5.50;;;;;;;19.60;100.00;100405.48;1474229;87;22674;-83
2023/07/18 00:32:45;;;;;;;9.18;6.00;;;;;;;19.61;100.00;100412.50;1473849;88;21470;-82
2023/07/18 00:35:13;;;;;;;12.15;6.42;;;;;;;19.64;100.00;100414.77;1465966;88;21536;-84
2023/07/18 00:37:41;;;;;;;14.15;5.53;;;;;;;19.65;100.00;100419.16;1472375;88;21493;-82
2023/07/18 00:40:10;;;;;;;8.60;6.72;;;;;;;19.63;100.00;100418.49;1471902;87;22247;-83
2023/07/18 00:42:47;;;;;;;13.70;6.05;;;;;;;19.61;100.00;100420.55;1478293;87;22476;-81
2023/07/18 00:45:15;;;;;;;8.50;5.85;;;;;;;19.61;100.00;100423.23;1479379;87;21487;-82
2023/07/18 00:47:43;;;;;;;11.48;5.80;;;;;;;19.56;100.00;100427.90;1481373;87;21656;-83
2023/07/18 00:50:17;;;;;;;10.15;5.87;;;;;;;19.51;100.00;100425.52;1475401;87;22364;-82
2023/07/18 00:52:48;;;;;;;10.30;5.62;;;;;;;19.45;100.00;100425.83;1477359;87;21441;-82
2023/07/18 00:55:16;;;;;;;11.05;6.90;;;;;;;19.42;100.00;100422.70;1474810;88;21530;-82
2023/07/18 00:57:45;;;;;;;15.43;6.58;;;;;;;19.37;100.00;100425.50;1475195;88;21449;-82
2023/07/18 01:00:13;;;;;;;12.73;6.08;;;;;;;19.34;100.00;100431.28;1465791;87;21597;-80
2023/07/18 01:02:42;;;;;;;11.18;6.10;;;;;;;19.32;100.00;100433.33;1472282;88;21456;-82
2023/07/18 01:05:10;;;;;;;9.35;5.97;;;;;;;19.32;100.00;100433.86;1479049;88;21449;-81
2023/07/18 01:07:40;;;;;;;8.03;6.75;;;;;;;19.32;100.00;100430.66;1477663;87;21471;-81
2023/07/18 01:10:23;;;;;;;15.70;5.75;;;;;;;19.37;100.00;100427.37;1471041;87;22455;-82
2023/07/18 01:12:56;;;;;;;17.10;7.30;;;;;;;19.38;100.00;100431.17;1466384;88;21449;-82
2023/07/18 01:15:23;;;;;;;15.30;6.45;;;;;;;19.35;100.00;100438.29;1469132;88;21583;-82
2023/07/18 01:17:50;;;;;;;9.28;6.78;;;;;;;19.31;100.00;100447.80;1473490;88;22411;-83
2023/07/18 01:20:23;;;;;;;12.90;6.47;;;;;;;19.31;100.00;100442.42;1468183;88;21449;-82
2023/07/18 01:22:51;;;;;;;7.97;6.62;;;;;;;19.34;100.00;100436.65;1473620;87;21456;-82
2023/07/18 01:25:19;;;;;;;13.13;7.95;;;;;;;19.36;100.00;100429.23;1474376;88;21633;-81
2023/07/18 01:27:47;;;;;;;10.58;7.45;;;;;;;19.36;100.00;100429.72;1474278;87;21449;-82
2023/07/18 01:30:14;;;;;;;14.45;7.53;;;;;;;19.36;100.00;100425.70;1472991;88;22498;-82
2023/07/18 01:32:42;;;;;;;7.67;6.22;;;;;;;19.39;100.00;100427.48;1477384;88;21456;-82
2023/07/18 01:35:09;;;;;;;7.33;6.17;;;;;;;19.36;100.00;100434.59;1475017;88;22512;-82
2023/07/18 01:37:37;;;;;;;25.85;8.20;;;;;;;19.33;100.00;100432.81;1465517;87;21660;-82
2023/07/18 01:40:12;;;;;;;9.58;6.50;;;;;;;19.30;100.00;100433.23;1482850;88;21529;-82
2023/07/18 01:42:38;;;;;;;10.50;6.85;;;;;;;19.30;100.00;100423.31;1471789;87;21478;-83
2023/07/18 01:45:07;;;;;;;11.48;6.80;;;;;;;19.32;100.00;100425.28;1475915;87;21575;-83
2023/07/18 01:47:34;;;;;;;7.58;6.12;;;;;;;19.29;100.00;100423.02;1483427;88;21537;-83
2023/07/18 01:50:03;;;;;;;6.60;5.80;;;;;;;19.27;100.00;100427.75;1468056;87;21427;-83
2023/07/18 01:52:29;;;;;;;13.22;7.03;;;;;;;19.26;100.00;100427.97;1488092;87;21486;-82
2023/07/18 01:55:00;;;;;;;11.12;7.35;;;;;;;19.29;100.00;100424.88;1472507;87;22535;-83
2023/07/18 01:57:31;;;;;;;7.97;6.33;;;;;;;19.29;100.00;100433.75;1485078;87;21346;-84
2023/07/18 02:00:01;;;;;;;12.07;6.72;;;;;;;19.28;100.00;100432.11;1473490;88;21693;-82
2023/07/18 02:02:30;;;;;;;12.85;7.67;;;;;;;19.24;100.00;100431.36;1472074;87;21634;-84
2023/07/18 02:04:58;;;;;;;11.78;6.00;;;;;;;19.16;100.00;100435.05;1471685;87;21655;-83
2023/07/18 02:07:25;;;;;;;49.00;7.58;;;;;;;19.15;100.00;100437.44;1469375;88;21507;-83
2023/07/18 02:09:52;;;;;;;7.40;6.70;;;;;;;19.17;100.00;100435.39;1472339;87;22351;-83
2023/07/18 02:12:19;;;;;;;8.00;6.03;;;;;;;19.21;100.00;100448.69;1472263;87;21642;-85
2023/07/18 02:14:45;;;;;;;12.15;7.40;;;;;;;19.25;100.00;100450.45;1472045;88;21456;-83
2023/07/18 02:17:12;;;;;;;13.22;6.80;;;;;;;19.28;100.00;100449.55;1477815;88;21464;-84
2023/07/18 02:19:38;;;;;;;11.15;7.62;;;;;;;19.29;100.00;100445.82;1466141;88;21583;-84
2023/07/18 02:22:05;;;;;;;14.90;7.17;;;;;;;19.31;100.00;100450.48;1473353;87;21478;-83
2023/07/18 02:24:32;;;;;;;8.70;7.00;;;;;;;19.33;100.00;100453.79;1473933;88;21456;-81
2023/07/18 02:26:58;;;;;;;9.65;7.17;;;;;;;19.33;100.00;100453.79;1470963;88;21611;-84
2023/07/18 02:29:25;;;;;;;12.65;6.95;;;;;;;19.32;100.00;100448.61;1471107;87;21449;-85
2023/07/18 02:31:51;;;;;;;9.13;6.78;;;;;;;19.34;100.00;100456.77;1467445;88;21552;-85
2023/07/18 02:34:17;;;;;;;9.83;6.65;;;;;;;19.35;100.00;100455.73;1477924;88;21471;-84
2023/07/18 02:36:44;;;;;;;10.58;7.58;;;;;;;19.41;100.00;100459.98;1471393;87;22482;-81
2023/07/18 02:39:10;;;;;;;10.03;7.25;;;;;;;19.38;100.00;100467.40;1474868;87;21449;-84
2023/07/18 02:41:38;;;;;;;14.40;9.10;;;;;;;19.37;100.00;100472.47;1474669;88;21493;-84
2023/07/18 02:44:07;;;;;;;8.48;7.60;;;;;;;19.39;100.00;100477.61;1471160;87;21972;-84
2023/07/18 02:46:35;;;;;;;15.47;8.47;;;;;;;19.35;100.00;100467.81;1476412;88;22417;-84
2023/07/18 02:49:03;;;;;;;9.25;7.60;;;;;;;19.34;100.00;100471.53;1473581;87;22330;-84
2023/07/18 02:51:30;;;;;;;15.70;7.20;;;;;;;19.34;100.00;100468.85;1475465;88;21618;-83
2023/07/18 02:53:57;;;;;;;13.53;7.00;;;;;;;19.32;100.00;100470.91;1475898;88;22344;-84
2023/07/18 02:56:23;;;;;;;17.00;8.63;;;;;;;19.29;100.00;100474.00;1471583;87;21578;-84
2023/07/18 02:58:50;;;;;;;11.28;8.10;;;;;;;19.27;100.00;100471.20;1472498;87;22240;-84
2023/07/18 03:01:19;;;;;;;9.98;8.40;;;;;;;19.25;100.00;100471.42;1471940;87;21456;-84
2023/07/18 03:03:45;;;;;;;11.38;7.87;;;;;;;19.25;100.00;100479.47;1476909;87;21516;-84
2023/07/18 03:06:11;;;;;;;12.58;8.83;;;;;;;19.25;100.00;100480.81;1469796;87;21655;-83
2023/07/18 03:08:37;;;;;;;13.58;7.12;;;;;;;19.25;100.00;100482.64;1469853;88;21501;-83
2023/07/18 03:11:04;;;;;;;12.03;7.33;;;;;;;19.26;100.00;100490.50;1473073;87;21648;-82
2023/07/18 03:13:31;;;;;;;11.78;7.72;;;;;;;19.28;100.00;100491.66;1476064;88;21479;-81
2023/07/18 03:15:57;;;;;;;10.60;7.22;;;;;;;19.29;100.00;100494.64;1485458;88;22321;-82
2023/07/18 03:18:23;;;;;;;18.52;8.50;;;;;;;19.28;100.00;100484.42;1473460;87;21583;-81
2023/07/18 03:20:50;;;;;;;11.80;7.70;;;;;;;19.30;100.00;100476.98;1475685;87;21434;-79
2023/07/18 03:23:16;;;;;;;10.58;8.48;;;;;;;19.32;100.00;100484.31;1465463;87;21397;-80
2023/07/18 03:25:43;;;;;;;11.88;9.40;;;;;;;19.34;100.00;100471.53;1467822;88;21508;-80
2023/07/18 03:28:09;;;;;;;11.48;8.75;;;;;;;19.34;100.00;100471.53;1466085;88;21375;-81
2023/07/18 03:30:36;;;;;;;15.68;8.65;;;;;;;19.36;100.00;100467.29;1479507;88;21601;-82
2023/07/18 03:33:03;;;;;;;13.98;10.20;;;;;;;19.38;100.00;100459.34;1471571;88;21428;-81
2023/07/18 03:35:29;;;;;;;11.63;9.60;;;;;;;19.39;100.00;100454.31;1474735;88;21501;-83
2023/07/18 03:37:55;;;;;;;11.88;9.30;;;;;;;19.43;100.00;100464.11;1474100;88;21828;-81
2023/07/18 03:40:21;;;;;;;10.35;9.35;;;;;;;19.44;100.00;100477.83;1468757;88;21316;-80
2023/07/18 03:42:47;;;;;;;13.28;9.20;;;;;;;19.44;100.00;100483.72;1469528;88;21414;-81
2023/07/18 03:45:14;;;;;;;11.55;9.30;;;;;;;19.43;100.00;100478.05;1476811;88;21360;-83
2023/07/18 03:47:42;;;;;;;13.32;7.67;;;;;;;19.45;100.00;100484.02;1472499;87;21368;-82
2023/07/18 03:50:13;;;;;;;14.93;7.70;;;;;;;19.45;100.00;100489.39;1472122;88;22709;-83
2023/07/18 03:52:40;;;;;;;14.00;8.50;;;;;;;19.45;100.00;100490.24;1473490;87;21366;-81
2023/07/18 03:55:07;;;;;;;8.20;7.40;;;;;;;19.47;100.00;100489.50;1473001;88;22196;-82
2023/07/18 03:57:37;;;;;;;7.72;7.00;;;;;;;19.46;100.00;100498.59;1476728;87;21383;-81
2023/07/18 04:00:13;;;;;;;7.25;6.62;;;;;;;19.47;100.00;100505.60;1465900;88;22469;-83
2023/07/18 04:02:32;;;;;;;6.17;5.58;;;;;;;19.50;100.00;100504.38;1470367;88;21451;-83
2023/07/18 04:04:58;;;;;;;10.35;7.80;;;;;;;19.47;100.00;100506.13;1477333;88;21353;-82
2023/07/18 04:07:24;;;;;;;7.28;6.67;;;;;;;19.48;100.00;100502.40;1476002;87;21375;-83
2023/07/18 04:09:51;;;;;;;9.10;8.18;;;;;;;19.52;100.00;100503.66;1472442;87;21331;-83
2023/07/18 04:12:17;;;;;;;10.85;8.55;;;;;;;19.55;100.00;100500.56;1475656;88;21508;-80
2023/07/18 04:14:43;;;;;;;8.43;7.58;;;;;;;19.57;100.00;100503.36;1483711;88;21390;-83
2023/07/18 04:17:09;;;;;;;11.65;8.05;;;;;;;19.61;100.00;100500.56;1475281;87;21368;-83
2023/07/18 04:19:35;;;;;;;9.95;7.72;;;;;;;19.67;100.00;100508.34;1468340;87;21368;-83
2023/07/18 04:22:03;;;;;;;9.48;8.40;;;;;;;19.74;100.00;100507.85;1468440;88;21367;-83
2023/07/18 04:24:31;;;;;;;8.75;7.90;;;;;;;19.79;100.00;100509.41;1473560;87;22329;-82
2023/07/18 04:26:57;;;;;;;14.73;8.18;;;;;;;19.87;100.00;100515.59;1467611;87;21353;-81
2023/07/18 04:29:24;;;;;;;10.23;8.40;;;;;;;19.93;100.00;100512.90;1477448;88;22440;-80
2023/07/18 04:31:50;;;;;;;8.63;7.65;;;;;;;20.01;100.00;100501.13;1470288;87;21382;-81
2023/07/18 04:34:17;;;;;;;9.43;8.53;;;;;;;20.05;100.00;100495.14;1474816;87;21531;-81
2023/07/18 04:36:43;;;;;;;11.75;8.55;;;;;;;20.13;100.00;100487.89;1474344;88;21613;-80
2023/07/18 04:39:09;;;;;;;8.58;7.78;;;;;;;20.18;100.00;100496.98;1476939;88;21620;-81
2023/07/18 04:41:36;;;;;;;14.78;9.05;;;;;;;20.21;100.00;100501.93;1464921;88;21936;-81
2023/07/18 04:44:03;;;;;;;11.00;7.65;;;;;;;20.25;100.00;100500.50;1477434;87;21502;-81
2023/07/18 04:46:30;;;;;;;10.30;8.00;;;;;;;20.29;100.00;100511.13;1476464;87;22234;-82
2023/07/18 04:48:56;;;;;;;12.53;7.35;;;;;;;20.35;100.00;100510.80;1466835;88;21382;-81
2023/07/18 04:51:24;;;;;;;11.65;9.65;;;;;;;20.46;100.00;100510.69;1463436;88;21624;-80
2023/07/18 04:53:50;;;;;;;10.30;7.92;;;;;;;20.60;100.00;100504.77;1472893;87;21471;-81
2023/07/18 04:56:16;;;;;;;10.75;8.68;;;;;;;20.61;100.00;100504.56;1474610;87;22466;-82
2023/07/18 04:58:43;;;;;;;10.68;7.83;;;;;;;20.77;100.00;100516.70;1472878;88;21339;-81
2023/07/18 05:01:09;;;;;;;17.02;9.38;;;;;;;20.90;100.00;100513.16;1472153;88;21375;-80
2023/07/18 05:03:36;;;;;;;10.63;8.40;;;;;;;21.04;100.00;100520.12;1469300;87;21486;-82
2023/07/18 05:06:02;;;;;;;13.88;8.83;;;;;;;21.18;100.00;100519.02;1470772;88;21367;-81
2023/07/18 05:08:29;;;;;;;11.65;8.65;;;;;;;21.32;100.00;100524.31;1474304;88;21360;-81
2023/07/18 05:11:03;;;;;;;15.32;9.93;;;;;;;21.43;100.00;100515.59;1470089;88;21361;-82
2023/07/18 05:13:30;;;;;;;9.95;8.93;;;;;;;21.48;100.00;100524.38;1471607;87;21817;-84
2023/07/18 05:16:01;;;;;;;9.68;8.58;;;;;;;21.57;100.00;100531.95;1472469;87;21389;-84
2023/07/18 05:18:29;;;;;;;13.53;9.38;;;;;;;21.70;100.00;100538.32;1475499;87;21502;-87
2023/07/18 05:20:57;;;;;;;14.68;9.33;;;;;;;21.74;100.00;100543.56;1474095;88;21353;-82
2023/07/18 05:23:24;;;;;;;10.48;9.35;;;;;;;21.84;100.00;100552.81;1476067;87;21480;-83
2023/07/18 05:25:50;;;;;;;11.95;8.80;;;;;;;21.98;100.00;100558.09;1474138;87;21501;-84
2023/07/18 05:28:16;;;;;;;13.18;9.78;;;;;;;22.12;100.00;100552.89;1459023;88;21501;-82
2023/07/18 05:30:42;;;;;;;12.47;8.43;;;;;;;22.22;100.00;100552.44;1468957;88;21368;-83
2023/07/18 05:33:09;;;;;;;9.90;8.53;;;;;;;22.30;100.00;100560.25;1490318;87;21647;-81
2023/07/18 05:35:35;;;;;;;23.07;10.13;;;;;;;22.38;100.00;100553.20;1485083;88;21367;-82
2023/07/18 05:38:01;;;;;;;15.60;9.75;;;;;;;22.49;100.00;100557.86;1483941;87;21470;-81
2023/07/18 05:40:27;;;;;;;13.88;8.85;;;;;;;22.54;100.00;100559.91;1476489;87;21449;-82
2023/07/18 05:42:54;;;;;;;14.33;9.73;;;;;;;22.62;100.00;100562.31;1489487;88;21411;-80
2023/07/18 05:45:20;;;;;;;24.45;11.25;;;;;;;22.71;100.00;100565.54;1488502;88;21490;-80
2023/07/18 05:47:46;;;;;;;19.93;10.20;;;;;;;22.81;100.00;100567.70;1485640;88;21509;-80
2023/07/18 05:50:13;;;;;;;20.23;11.83;;;;;;;22.90;100.00;100585.23;1484838;88;21329;-81
2023/07/18 05:52:39;;;;;;;18.50;11.55;;;;;;;22.98;100.00;100583.63;1489127;88;21301;-80
2023/07/18 05:55:08;;;;;;;14.05;11.03;;;;;;;23.01;100.00;100581.00;1488310;88;22476;-80
2023/07/18 05:57:34;;;;;;;15.45;9.30;;;;;;;23.05;100.00;100580.87;1481408;88;21352;-78
2023/07/18 06:00:01;;;;;;;16.48;10.03;;;;;;;23.16;100.00;100590.88;1479715;87;21411;-80
2023/07/18 06:02:27;;;;;;;19.45;10.23;;;;;;;23.21;100.00;100588.33;1485977;88;21462;-79
2023/07/18 06:04:55;;;;;;;17.15;10.78;;;;;;;23.25;100.00;100594.94;1481532;87;21621;-80
2023/07/18 06:07:21;;;;;;;12.20;10.35;;;;;;;23.32;100.00;100588.91;1478430;88;22275;-79
2023/07/18 06:09:52;;;;;;;14.03;10.25;;;;;;;23.39;100.00;100584.27;1484702;87;21374;-79
2023/07/18 06:12:17;;;;;;;16.97;10.35;;;;;;;23.45;100.00;100585.23;1484464;88;21411;-78
2023/07/18 06:14:43;;;;;;;16.27;10.28;;;;;;;23.50;100.00;100585.34;1476673;87;21375;-80
2023/07/18 06:17:09;;;;;;;14.45;9.70;;;;;;;23.56;100.00;100587.66;1483112;87;21539;-77
2023/07/18 06:19:36;;;;;;;13.20;10.00;;;;;;;23.62;100.00;100579.48;1482862;88;21397;-73
2023/07/18 06:22:03;;;;;;;12.63;10.53;;;;;;;23.72;100.00;100582.99;1484045;88;21411;-74
2023/07/18 06:24:29;;;;;;;11.25;8.60;;;;;;;23.76;100.00;100582.81;1483330;87;22513;-73
2023/07/18 06:26:56;;;;;;;12.88;10.68;;;;;;;23.82;100.00;100581.92;1482024;88;21367;-74
2023/07/18 06:29:24;;;;;;;14.68;9.73;;;;;;;23.91;100.00;100582.91;1475637;87;21500;-74
2023/07/18 06:31:51;;;;;;;11.78;9.88;;;;;;;24.01;100.00;100573.72;1480816;88;21434;-72
2023/07/18 06:34:17;;;;;;;18.32;10.28;;;;;;;24.11;100.00;100578.03;1473771;87;22299;-74
2023/07/18 06:36:45;;;;;;;16.27;10.10;;;;;;;24.16;100.00;100572.73;1475744;88;21507;-74
2023/07/18 06:39:12;;;;;;;17.45;10.45;;;;;;;24.23;100.00;100577.51;1471607;87;21397;-71
2023/07/18 06:41:38;;;;;;;19.07;8.90;;;;;;;24.36;100.00;100572.92;1468196;87;21309;-73
2023/07/18 06:44:05;;;;;;;16.17;9.75;;;;;;;24.52;100.00;100576.31;1476056;87;21567;-73
2023/07/18 06:46:31;;;;;;;11.30;9.73;;;;;;;24.64;100.00;100576.30;1472982;87;21879;-75
2023/07/18 06:48:58;;;;;;;11.95;10.10;;;;;;;24.82;100.00;100582.09;1473992;87;21460;-77
2023/07/18 06:51:24;;;;;;;14.18;9.58;;;;;;;24.92;100.00;100583.67;1472906;87;21346;-78
2023/07/18 06:53:51;;;;;;;12.85;9.70;;;;;;;25.03;100.00;100582.83;1476088;87;21382;-76
2023/07/18 06:56:18;;;;;;;12.82;7.87;;;;;;;25.11;100.00;100579.72;1471310;87;21375;-78
2023/07/18 06:58:44;;;;;;;13.83;8.83;;;;;;;25.19;100.00;100580.73;1482244;88;21530;-77
2023/07/18 07:01:10;;;;;;;10.25;7.67;;;;;;;25.29;100.00;100580.13;1467748;87;21419;-77
2023/07/18 07:03:37;;;;;;;13.60;9.10;;;;;;;25.36;100.00;100579.44;1459857;88;21412;-77
2023/07/18 07:06:11;;;;;;;13.75;7.92;;;;;;;25.43;100.00;100581.48;1468408;87;21443;-79
2023/07/18 07:08:37;;;;;;;14.38;8.10;;;;;;;25.43;100.00;100584.70;1474028;88;22270;-77
2023/07/18 07:11:06;;;;;;;13.35;8.80;;;;;;;25.45;100.00;100596.13;1472126;87;21524;-77
2023/07/18 07:13:35;;;;;;;12.37;8.53;;;;;;;25.45;100.00;100589.36;1395864;87;22159;-78
2023/07/18 07:16:03;;;;;;;15.75;8.50;;;;;;;25.49;100.00;100593.24;1395498;88;22197;-79
2023/07/18 07:18:30;;;;;;;9.38;7.17;;;;;;;25.55;100.00;100596.33;1396768;87;21184;-78
2023/07/18 07:20:56;;;;;;;9.60;7.33;;;;;;;25.66;100.00;100598.17;1403669;88;22249;-78
2023/07/18 07:23:22;;;;;;;19.17;8.00;;;;;;;25.78;100.00;100601.33;1437913;87;21227;-79
2023/07/18 07:25:51;;;;;;;14.47;7.62;;;;;;;25.84;100.00;100596.34;1398953;87;21372;-79
2023/07/18 07:28:19;;;;;;;22.93;9.08;;;;;;;25.96;100.00;100602.50;1398693;87;21309;-78
2023/07/18 07:30:45;;;;;;;38.58;11.43;;;;;;;26.00;100.00;100598.22;1397591;87;22201;-79
2023/07/18 07:33:12;;;;;;;14.13;7.80;;;;;;;26.16;100.00;100595.78;1409888;87;21397;-79
2023/07/18 07:35:38;;;;;;;10.50;7.87;;;;;;;26.27;100.00;100594.88;1406770;87;21375;-79
2023/07/18 07:38:06;;;;;;;12.65;7.75;;;;;;;26.41;100.00;100596.16;1413694;87;21392;-79
2023/07/18 07:40:33;;;;;;;13.88;7.87;;;;;;;26.49;100.00;100598.45;1404607;87;21258;-80
2023/07/18 07:42:59;;;;;;;14.13;9.13;;;;;;;26.61;100.00;100589.41;1407132;87;22144;-78
2023/07/18 07:45:25;;;;;;;10.72;7.33;;;;;;;26.72;100.00;100600.16;1407633;88;21467;-79
2023/07/18 07:47:51;;;;;;;9.63;7.17;;;;;;;26.86;100.00;100587.05;1407289;87;21235;-80
2023/07/18 07:50:17;;;;;;;9.08;7.72;;;;;;;26.97;100.00;100591.54;1407089;87;21416;-79
2023/07/18 07:52:45;;;;;;;10.75;6.75;;;;;;;27.03;100.00;100590.25;1413317;87;22123;-79
2023/07/18 07:55:11;;;;;;;14.98;7.50;;;;;;;27.06;97.64;100596.53;1405212;87;21190;-80
2023/07/18 07:57:38;;;;;;;13.15;8.78;;;;;;;27.14;99.52;100596.09;1406781;87;21250;-80
2023/07/18 08:00:07;;;;;;;9.80;7.05;;;;;;;27.25;99.55;100598.41;1412371;88;21394;-79
2023/07/18 08:02:33;;;;;;;8.55;6.62;;;;;;;27.31;98.19;100596.87;1404794;87;21442;-79
2023/07/18 08:05:00;;;;;;;7.78;6.87;;;;;;;27.34;96.81;100605.88;1406657;88;21191;-79
2023/07/18 08:07:26;;;;;;;11.65;7.28;;;;;;;27.39;96.31;100604.58;1407783;88;22208;-80
2023/07/18 08:09:52;;;;;;;8.63;6.25;;;;;;;27.48;95.81;100602.73;1413440;87;21227;-78
2023/07/18 08:12:20;;;;;;;8.70;6.62;;;;;;;27.54;93.56;100607.17;1407127;87;21400;-79
2023/07/18 08:14:46;;;;;;;9.40;6.25;;;;;;;27.57;93.72;100609.38;1560820;88;21280;-79
2023/07/18 08:17:12;;;;;;;10.48;6.65;;;;;;;27.63;93.42;100611.89;1569995;88;22101;-78
2023/07/18 08:19:38;;;;;;;7.10;6.28;;;;;;;27.75;92.79;100614.45;1407794;87;21249;-80
2023/07/18 08:22:04;;;;;;;11.08;6.33;;;;;;;27.80;91.48;100613.17;1407660;87;21450;-79
2023/07/18 08:24:31;;;;;;;12.60;7.60;;;;;;;27.84;89.36;100611.56;1413192;87;22115;-78
2023/07/18 08:26:58;;;;;;;12.70;8.05;;;;;;;27.97;91.03;100613.06;1564864;87;21255;-79
2023/07/18 08:29:26;;;;;;;46.88;8.25;;;;;;;28.06;90.86;100611.50;1476784;88;22277;-79
2023/07/18 08:31:54;;;;;;;7.80;6.77;;;;;;;28.15;90.33;100607.77;1477601;87;22456;-79
2023/07/18 08:34:21;;;;;;;15.55;7.05;;;;;;;28.17;87.81;100606.13;1475625;88;21464;-79
2023/07/18 08:36:48;;;;;;;37.70;8.55;;;;;;;28.10;87.49;100602.27;1397445;88;21301;-79
2023/07/18 08:39:15;;;;;;;21.05;7.30;;;;;;;28.24;86.25;100603.47;1398522;87;22264;-79
2023/07/18 08:41:51;;;;;;;32.10;8.23;;;;;;;28.34;87.99;100606.83;1403825;87;21286;-79
2023/07/18 08:44:19;;;;;;;14.45;6.00;;;;;;;28.51;88.49;100601.23;1559137;88;21207;-79
2023/07/18 08:46:46;;;;;;;10.25;5.58;;;;;;;28.61;87.95;100605.39;1396914;88;21392;-79
2023/07/18 08:53:11;;;;;;;8.83;6.10;;;;;;;28.71;84.23;100604.07;1559426;88;21467;-80
2023/07/18 08:55:39;;;;;;;8.63;6.05;;;;;;;28.66;84.41;100605.43;1404439;88;21501;-77
2023/07/18 08:58:06;;;;;;;10.40;5.85;;;;;;;28.71;84.82;100610.06;1396359;88;21243;-79
2023/07/18 09:00:32;;;;;;;9.35;6.62;;;;;;;28.83;85.40;100610.70;1398974;88;21258;-79
2023/07/18 09:02:58;;;;;;;7.95;5.80;;;;;;;28.62;80.33;100613.83;1404396;87;21509;-78
2023/07/18 09:05:37;;;;;;;8.05;5.95;;;;;;;28.47;80.00;100620.55;1398985;87;21251;-79
2023/07/18 09:08:06;;;;;;;7.92;5.10;;;;;;;28.57;82.99;100613.81;1509517;91;21284;-78
2023/07/18 09:10:33;;;;;;;8.57;5.93;;;;;;;28.58;79.79;100614.63;1401737;88;21287;-78
2023/07/18 09:13:05;;;;;;;12.55;5.80;;;;;;;28.84;82.68;100621.05;1397862;88;21317;-79
2023/07/18 09:15:37;;;;;;;7.10;4.95;;;;;;;28.98;80.82;100617.57;1395693;87;22138;-79
2023/07/18 09:18:08;;;;;;;10.70;6.37;;;;;;;29.13;81.35;100616.84;1401736;87;21258;-78
2023/07/18 09:20:35;;;;;;;7.20;5.28;;;;;;;29.30;82.18;100609.01;1559139;88;22139;-79
2023/07/18 09:23:03;;;;;;;10.65;6.03;;;;;;;29.15;77.99;100612.50;1398062;87;21302;-80
2023/07/18 09:25:30;;;;;;;14.30;5.80;;;;;;;29.18;81.33;100612.78;1396152;87;21398;-79
2023/07/18 09:27:58;;;;;;;9.70;5.67;;;;;;;29.21;81.00;100614.16;1391106;89;21340;-81
2023/07/18 09:30:34;;;;;;;11.28;5.58;;;;;;;29.14;80.07;100613.02;1397206;87;22234;-77
2023/07/18 09:33:05;;;;;;;8.28;5.80;;;;;;;29.15;81.56;100617.41;1516699;87;21332;-79
2023/07/18 09:35:38;;;;;;;6.60;5.58;;;;;;;29.19;81.05;100615.77;1400555;87;21397;-79
2023/07/18 09:38:09;;;;;;;8.28;5.55;;;;;;;29.31;81.99;100616.91;1559119;88;21325;-79
2023/07/18 09:40:37;;;;;;;7.75;5.35;;;;;;;29.35;81.21;100613.13;1559126;88;22308;-79
2023/07/18 09:43:04;;;;;;;10.93;5.60;;;;;;;29.41;78.59;100615.58;1551770;88;21354;-79
2023/07/18 09:45:31;;;;;;;7.40;5.90;;;;;;;29.23;77.74;100610.60;1397263;88;21388;-81
2023/07/18 09:47:58;;;;;;;7.70;5.05;;;;;;;29.36;78.52;100607.38;1397952;87;21368;-80
2023/07/18 09:50:26;;;;;;;6.30;5.72;;;;;;;29.31;78.12;100601.91;1404170;87;21286;-79
2023/07/18 09:52:55;;;;;;;7.80;5.87;;;;;;;29.36;78.48;100601.93;1396641;88;21366;-79
2023/07/18 09:55:24;;;;;;;6.25;5.40;;;;;;;29.44;76.86;100600.59;1558176;88;22094;-79
2023/07/18 09:57:53;;;;;;;8.53;5.60;;;;;;;29.32;75.34;100596.75;1401069;87;22255;-79
2023/07/18 10:00:22;;;;;;;13.13;5.28;;;;;;;29.32;77.17;100599.48;1551172;88;21250;-81
2023/07/18 10:02:49;;;;;;;5.37;4.87;;;;;;;29.33;75.28;100602.47;1450240;88;21478;-81
2023/07/18 10:05:16;;;;;;;6.17;5.58;;;;;;;29.16;73.68;100601.32;1474172;88;21581;-81
2023/07/18 10:07:44;;;;;;;6.15;4.90;;;;;;;29.25;76.22;100607.08;1474862;87;22321;-81
2023/07/18 10:10:11;;;;;;;5.90;4.95;;;;;;;29.39;74.60;100599.22;1474131;87;21575;-81
2023/07/18 10:12:59;;;;;;;6.22;5.08;;;;;;;29.60;75.81;100602.25;1402566;88;21273;-81
2023/07/18 10:15:28;;;;;;;5.85;4.22;;;;;;;29.79;74.15;100603.95;1559296;87;21321;-81
2023/07/18 10:17:54;;;;;;;12.15;5.17;;;;;;;29.81;73.33;100600.42;1396422;87;21316;-80
2023/07/18 10:20:34;;;;;;;4.42;4.00;;;;;;;29.84;74.07;100603.15;1404237;87;21472;-80
2023/07/18 10:23:00;;;;;;;4.78;3.80;;;;;;;29.83;73.38;100602.86;1397446;87;21316;-80
2023/07/18 10:25:29;;;;;;;8.55;3.98;;;;;;;29.45;69.52;100606.31;1398571;87;21379;-80
2023/07/18 10:27:58;;;;;;;12.93;4.10;;;;;;;29.05;72.28;100606.45;1401950;88;21287;-81
2023/07/18 10:30:26;;;;;;;10.23;4.75;;;;;;;28.69;72.96;100606.26;1396535;87;21399;-79
2023/07/18 10:32:56;;;;;;;10.65;4.25;;;;;;;28.53;73.65;100604.52;1542618;87;21287;-79
2023/07/18 10:35:26;;;;;;;7.55;4.00;;;;;;;28.62;73.58;100597.48;1552969;87;22183;-80
2023/07/18 10:37:54;;;;;;;11.68;3.98;;;;;;;28.95;74.75;100601.76;1395248;88;21198;-79
2023/07/18 10:40:37;;;;;;;7.47;3.72;;;;;;;29.27;75.84;100594.01;1396513;87;21243;-79
2023/07/18 10:43:15;;;;;;;26.52;5.70;;;;;;;29.53;76.17;100597.61;1479763;87;21443;-80
2023/07/18 10:45:43;;;;;;;9.40;3.52;;;;;;;29.63;75.15;100592.74;1558589;87;21691;-81
2023/07/18 10:48:18;;;;;;;8.13;4.20;;;;;;;29.62;72.68;100590.56;1396965;88;21243;-80
2023/07/18 10:50:47;;;;;;;7.03;3.92;;;;;;;29.57;73.00;100589.16;1401781;88;22375;-79
2023/07/18 10:53:19;;;;;;;5.03;3.52;;;;;;;29.66;72.85;100588.95;1559132;88;21170;-81
2023/07/18 10:55:49;;;;;;;9.60;3.75;;;;;;;29.82;72.42;100586.23;1394726;87;21318;-80
2023/07/18 10:58:20;;;;;;;5.75;3.50;;;;;;;29.96;72.20;100583.78;1388251;89;21251;-80
2023/07/18 11:00:48;;;;;;;7.90;3.60;;;;;;;30.11;72.24;100587.31;1395928;87;21250;-80
2023/07/18 11:03:35;;;;;;;9.73;3.83;;;;;;;30.33;72.91;100588.42;1402132;88;21582;-81
2023/07/18 11:05:57;;;;;;;10.35;3.75;;;;;;;30.54;71.63;100582.91;1552659;88;21272;-81
2023/07/18 11:08:32;;;;;;;8.75;3.90;;;;;;;30.63;66.20;100581.80;1398421;87;21279;-83
2023/07/18 11:11:03;;;;;;;7.40;3.33;;;;;;;30.67;65.79;100582.34;1559126;88;21140;-82
2023/07/18 11:13:35;;;;;;;6.20;3.30;;;;;;;30.79;68.23;100579.33;1559303;87;21176;-82
2023/07/18 11:16:08;;;;;;;7.62;3.62;;;;;;;30.83;65.44;100577.66;1394289;87;21279;-81
2023/07/18 11:18:38;;;;;;;3.92;3.52;;;;;;;30.64;58.54;100578.77;1564423;87;21272;-81
2023/07/18 11:21:06;;;;;;;5.92;3.55;;;;;;;30.67;60.44;100571.94;1557236;87;21331;-80